createdAt,value
2022-10-28T00:01:06.551Z,7.00
2022-10-28T00:03:34.001Z,6.70
2022-10-28T00:06:05.190Z,6.75
2022-10-28T00:08:33.076Z,7.20
2022-10-28T00:11:04.418Z,7.15
2022-10-28T00:13:33.215Z,7.23
2022-10-28T00:16:08.267Z,7.40
2022-10-28T00:18:35.723Z,7.30
2022-10-28T00:21:03.791Z,7.38
2022-10-28T00:23:31.170Z,7.40
2022-10-28T00:26:04.919Z,7.80
2022-10-28T00:28:33.696Z,7.68
2022-10-28T00:31:04.707Z,8.18
2022-10-28T00:33:32.052Z,9.07
2022-10-28T00:36:08.039Z,8.55
2022-10-28T00:38:35.468Z,8.70
2022-10-28T00:41:02.811Z,8.30
2022-10-28T00:43:41.398Z,8.48
2022-10-28T00:46:15.966Z,8.00
2022-10-28T00:48:44.755Z,8.50
2022-10-28T00:51:12.160Z,7.97
2022-10-28T00:53:41.400Z,8.32
2022-10-28T00:56:09.643Z,7.80
2022-10-28T00:58:37.000Z,7.75
2022-10-28T01:01:05.934Z,8.65
2022-10-28T01:03:33.326Z,7.90
2022-10-28T01:06:02.029Z,7.75
2022-10-28T01:08:29.411Z,8.07
2022-10-28T01:11:08.700Z,8.38
2022-10-28T01:13:40.148Z,7.78
2022-10-28T01:16:14.579Z,8.03
2022-10-28T01:18:46.940Z,7.95
2022-10-28T01:21:27.788Z,8.15
2022-10-28T01:24:10.341Z,8.20
2022-10-28T01:26:46.595Z,8.02
2022-10-28T01:29:28.815Z,7.53
2022-10-28T01:31:58.586Z,7.35
2022-10-28T01:34:31.137Z,7.60
2022-10-28T01:37:00.195Z,7.85
2022-10-28T01:39:31.588Z,7.53
2022-10-28T01:42:03.202Z,7.60
2022-10-28T01:44:32.543Z,7.45
2022-10-28T01:47:05.422Z,7.65
2022-10-28T01:49:39.178Z,7.32
2022-10-28T01:52:10.044Z,7.68
2022-10-28T01:54:39.388Z,6.97
2022-10-28T01:57:07.200Z,7.88
2022-10-28T01:59:35.455Z,7.90
2022-10-28T02:02:04.169Z,7.60
2022-10-28T02:04:31.556Z,7.43
2022-10-28T02:07:00.655Z,7.37
2022-10-28T02:09:35.106Z,6.45
2022-10-28T02:12:20.339Z,5.65
2022-10-28T02:14:55.440Z,6.65
2022-10-28T02:17:27.302Z,6.30
2022-10-28T02:19:57.931Z,7.70
2022-10-28T02:22:27.828Z,7.20
2022-10-28T02:24:57.897Z,7.28
2022-10-28T02:27:31.652Z,8.27
2022-10-28T02:30:01.683Z,7.72
2022-10-28T02:32:32.290Z,8.43
2022-10-28T02:35:01.196Z,7.80
2022-10-28T02:37:29.998Z,8.07
2022-10-28T02:39:58.850Z,7.57
2022-10-28T02:42:28.419Z,8.20
2022-10-28T02:44:59.706Z,7.30
2022-10-28T02:47:28.807Z,6.90
2022-10-28T02:50:00.073Z,7.32
2022-10-28T02:52:29.109Z,6.88
2022-10-28T02:54:57.774Z,7.20
2022-10-28T02:57:26.342Z,7.57
2022-10-28T02:59:54.796Z,7.53
2022-10-28T03:02:22.326Z,7.88
2022-10-28T03:04:49.891Z,8.18
2022-10-28T03:07:18.636Z,8.27
2022-10-28T03:09:45.977Z,8.17
2022-10-28T03:12:13.342Z,8.15
2022-10-28T03:14:40.768Z,7.68
2022-10-28T03:17:08.565Z,8.57
2022-10-28T03:19:35.923Z,7.03
2022-10-28T03:22:03.268Z,7.47
2022-10-28T03:24:32.027Z,7.80
2022-10-28T03:26:59.455Z,8.05
2022-10-28T03:29:27.016Z,8.00
2022-10-28T03:31:54.409Z,7.20
2022-10-28T03:34:21.798Z,7.90
2022-10-28T03:36:49.284Z,7.95
2022-10-28T03:39:16.922Z,8.23
2022-10-28T03:41:45.721Z,7.35
2022-10-28T03:44:13.054Z,7.80
2022-10-28T03:46:40.630Z,7.60
2022-10-28T03:49:08.004Z,7.32
2022-10-28T03:51:35.352Z,6.88
2022-10-28T03:54:02.826Z,7.03
2022-10-28T03:56:30.236Z,6.72
2022-10-28T03:58:58.957Z,7.20
2022-10-28T04:01:26.514Z,7.00
2022-10-28T04:03:53.915Z,7.35
2022-10-28T04:06:21.257Z,6.65
2022-10-28T04:08:48.667Z,6.05
2022-10-28T04:11:16.045Z,7.03
2022-10-28T04:13:43.414Z,7.25
2022-10-28T04:16:12.164Z,6.80
2022-10-28T04:18:39.595Z,6.88
2022-10-28T04:21:07.119Z,7.15
2022-10-28T04:23:34.546Z,6.73
2022-10-28T04:26:01.917Z,7.00
2022-10-28T04:28:29.404Z,7.47
2022-10-28T04:30:56.744Z,8.20
2022-10-28T04:33:25.455Z,7.35
2022-10-28T04:35:52.789Z,7.60
2022-10-28T04:38:20.189Z,7.68
2022-10-28T04:40:49.126Z,7.40
2022-10-28T04:43:16.511Z,7.03
2022-10-28T04:45:43.893Z,6.88
2022-10-28T04:48:11.252Z,7.00
2022-10-28T04:50:39.958Z,6.93
2022-10-28T04:53:07.307Z,7.00
2022-10-28T04:55:34.739Z,7.30
2022-10-28T04:58:02.147Z,7.18
2022-10-28T05:00:30.083Z,7.27
2022-10-28T05:02:58.172Z,7.30
2022-10-28T05:05:26.377Z,6.57
2022-10-28T05:07:55.429Z,7.00
2022-10-28T05:10:23.087Z,7.18
2022-10-28T05:12:50.419Z,6.83
2022-10-28T05:15:17.899Z,6.70
2022-10-28T05:17:46.205Z,6.40
2022-10-28T05:20:14.470Z,6.90
2022-10-28T05:22:46.340Z,6.97
2022-10-28T05:25:15.273Z,5.60
2022-10-28T05:27:42.633Z,6.47
2022-10-28T05:30:10.552Z,6.82
2022-10-28T05:32:37.885Z,6.30
2022-10-28T05:35:05.715Z,6.75
2022-10-28T05:37:33.174Z,6.70
2022-10-28T05:40:00.743Z,6.47
2022-10-28T05:42:29.433Z,7.32
2022-10-28T05:44:56.812Z,7.63
2022-10-28T05:47:24.774Z,7.35
2022-10-28T05:49:52.380Z,7.23
2022-10-28T05:52:19.796Z,7.40
2022-10-28T05:54:47.160Z,7.20
2022-10-28T05:57:14.539Z,7.60
2022-10-28T05:59:43.229Z,7.70
2022-10-28T06:02:14.325Z,8.47
2022-10-28T06:04:41.861Z,7.40
2022-10-28T06:07:09.451Z,7.82
2022-10-28T06:09:36.983Z,7.47
2022-10-28T06:12:03.242Z,7.65
2022-10-28T06:14:30.678Z,7.40
2022-10-28T06:16:59.411Z,7.45
2022-10-28T06:19:26.770Z,7.70
2022-10-28T06:21:54.328Z,7.82
2022-10-28T06:24:21.679Z,7.72
2022-10-28T06:26:49.079Z,8.33
2022-10-28T06:29:16.898Z,8.40
2022-10-28T06:31:44.279Z,7.78
2022-10-28T06:34:13.057Z,8.13
2022-10-28T06:36:40.392Z,7.90
2022-10-28T06:39:07.968Z,8.03
2022-10-28T06:41:35.318Z,8.23
2022-10-28T06:44:02.695Z,8.50
2022-10-28T06:46:30.224Z,8.35
2022-10-28T06:48:59.152Z,8.52
2022-10-28T06:51:27.856Z,8.10
2022-10-28T06:53:55.288Z,7.78
2022-10-28T06:56:22.818Z,7.95
2022-10-28T06:58:51.390Z,8.80
2022-10-28T07:01:19.111Z,7.72
2022-10-28T07:03:46.622Z,7.70
2022-10-28T07:08:47.615Z,7.70
2022-10-28T07:11:15.023Z,7.63
2022-10-28T07:13:44.296Z,7.18
2022-10-28T07:16:13.997Z,7.40
2022-10-28T07:18:41.333Z,7.50
2022-10-28T07:21:08.718Z,7.65
2022-10-28T07:23:36.149Z,7.72
2022-10-28T07:26:04.913Z,7.35
2022-10-28T07:28:32.426Z,7.23
2022-10-28T07:31:01.501Z,7.28
2022-10-28T07:33:28.908Z,7.40
2022-10-28T07:35:56.257Z,7.20
2022-10-28T07:38:23.608Z,6.63
2022-10-28T07:40:51.482Z,7.13
2022-10-28T07:43:20.131Z,7.15
2022-10-28T07:45:47.472Z,7.65
2022-10-28T07:48:15.940Z,6.85
2022-10-28T07:50:43.337Z,6.32
2022-10-28T07:53:10.723Z,6.40
2022-10-28T07:55:38.109Z,6.80
2022-10-28T07:58:05.471Z,6.45
2022-10-28T08:00:34.242Z,7.25
2022-10-28T08:03:03.026Z,6.18
2022-10-28T08:05:30.377Z,6.00
2022-10-28T08:07:57.747Z,6.30
2022-10-28T08:10:25.085Z,6.07
2022-10-28T08:12:52.443Z,5.15
2022-10-28T08:15:23.454Z,5.30
2022-10-28T08:17:53.578Z,5.40
2022-10-28T08:20:21.354Z,5.47
2022-10-28T08:22:48.916Z,5.38
2022-10-28T08:25:16.265Z,5.05
2022-10-28T08:27:43.593Z,5.50
2022-10-28T08:30:11.446Z,5.40
2022-10-28T08:32:38.812Z,5.35
2022-10-28T08:35:08.166Z,5.10
2022-10-28T08:37:36.051Z,4.80
2022-10-28T08:40:03.525Z,4.93
2022-10-28T08:42:36.233Z,5.00
2022-10-28T08:45:16.225Z,4.88
2022-10-28T08:47:47.122Z,4.95
2022-10-28T08:50:18.180Z,4.90
2022-10-28T08:52:49.038Z,4.53
2022-10-28T08:55:19.953Z,5.00
2022-10-28T08:57:50.134Z,4.90
2022-10-28T09:00:21.217Z,5.60
2022-10-28T09:02:52.083Z,5.10
2022-10-28T09:05:23.598Z,5.15
2022-10-28T09:07:51.150Z,5.20
2022-10-28T09:10:21.894Z,4.78
2022-10-28T09:12:53.532Z,4.78
2022-10-28T09:15:27.094Z,4.78
2022-10-28T09:17:55.970Z,4.80
2022-10-28T09:20:28.928Z,4.50
2022-10-28T09:22:57.988Z,4.40
2022-10-28T09:25:28.443Z,4.50
2022-10-28T09:28:05.103Z,4.65
2022-10-28T09:30:36.889Z,5.13
2022-10-28T09:33:10.028Z,4.53
2022-10-28T09:35:41.091Z,4.18
2022-10-28T09:38:12.858Z,3.78
2022-10-28T09:40:42.065Z,4.03
2022-10-28T09:43:15.621Z,4.20
2022-10-28T09:45:45.093Z,4.37
2022-10-28T09:48:15.829Z,4.45
2022-10-28T09:50:45.178Z,4.15
2022-10-28T09:53:17.071Z,3.85
2022-10-28T09:55:44.700Z,4.25
2022-10-28T09:58:13.240Z,3.77
2022-10-28T10:00:40.902Z,3.88
2022-10-28T10:03:08.234Z,4.05
2022-10-28T10:05:39.952Z,3.97
2022-10-28T10:08:12.526Z,4.20
2022-10-28T10:10:44.726Z,3.83
2022-10-28T10:13:13.722Z,3.80
2022-10-28T10:15:44.510Z,4.15
2022-10-28T10:18:15.209Z,4.03
2022-10-28T10:20:50.447Z,3.58
2022-10-28T10:23:28.634Z,3.40
2022-10-28T10:25:57.412Z,3.88
2022-10-28T10:28:26.344Z,3.55
2022-10-28T10:30:54.449Z,3.33
2022-10-28T10:33:23.421Z,3.58
2022-10-28T10:35:59.771Z,3.27
2022-10-28T10:38:30.186Z,4.13
2022-10-28T10:40:57.641Z,3.53
2022-10-28T10:43:30.403Z,3.85
2022-10-28T10:46:01.839Z,3.42
2022-10-28T10:48:29.712Z,3.43
2022-10-28T10:50:57.098Z,3.80
2022-10-28T10:53:25.468Z,3.97
2022-10-28T10:55:55.625Z,4.20
2022-10-28T10:58:24.384Z,3.47
2022-10-28T11:00:52.493Z,3.20
2022-10-28T11:03:21.103Z,3.90
2022-10-28T11:05:55.182Z,3.58
2022-10-28T11:08:35.126Z,3.60
2022-10-28T11:11:14.180Z,3.60
2022-10-28T11:13:45.162Z,3.57
2022-10-28T11:16:19.078Z,3.92
2022-10-28T11:18:47.717Z,3.70
2022-10-28T11:21:27.841Z,4.13
2022-10-28T11:24:00.468Z,3.35
2022-10-28T11:26:29.904Z,3.57
2022-10-28T11:29:02.332Z,4.05
2022-10-28T11:31:34.286Z,3.90
2022-10-28T11:34:10.585Z,3.67
2022-10-28T11:36:41.545Z,3.65
2022-10-28T11:39:16.917Z,3.67
2022-10-28T11:41:54.125Z,3.50
2022-10-28T11:44:27.421Z,4.15
2022-10-28T11:47:04.187Z,4.07
2022-10-28T11:50:01.637Z,3.60
2022-10-28T11:52:44.272Z,4.00
2022-10-28T11:55:17.475Z,4.50
2022-10-28T11:57:50.055Z,4.15
2022-10-28T12:00:32.700Z,3.70
2022-10-28T12:03:06.230Z,3.70
2022-10-28T12:05:36.268Z,3.80
2022-10-28T12:08:17.274Z,3.33
2022-10-28T12:10:52.241Z,3.42
2022-10-28T12:13:25.775Z,3.90
2022-10-28T12:15:56.141Z,3.65
2022-10-28T12:18:26.987Z,3.63
2022-10-28T12:20:57.255Z,3.60
2022-10-28T12:23:25.771Z,3.38
2022-10-28T12:25:55.793Z,3.60
2022-10-28T12:28:26.905Z,3.67
2022-10-28T12:30:54.853Z,3.63
2022-10-28T12:33:25.562Z,3.50
2022-10-28T12:35:56.269Z,3.83
2022-10-28T12:38:26.635Z,3.65
2022-10-28T12:40:56.743Z,4.05
2022-10-28T12:43:28.096Z,3.57
2022-10-28T12:45:56.785Z,3.50
2022-10-28T12:48:29.062Z,3.35
2022-10-28T12:50:58.308Z,3.30
2022-10-28T12:53:29.525Z,3.15
2022-10-28T12:55:58.444Z,3.23
2022-10-28T12:58:30.399Z,3.03
2022-10-28T13:01:01.142Z,3.63
2022-10-28T13:03:28.513Z,3.70
2022-10-28T13:06:01.632Z,3.90
2022-10-28T13:08:40.993Z,3.17
2022-10-28T13:11:35.238Z,3.30
2022-10-28T13:14:05.860Z,3.90
2022-10-28T13:16:41.235Z,3.45
2022-10-28T13:19:30.232Z,3.13
2022-10-28T13:22:14.282Z,3.13
2022-10-28T13:24:45.346Z,3.40
2022-10-28T13:27:13.319Z,3.10
2022-10-28T13:29:43.437Z,2.83
2022-10-28T13:32:32.663Z,2.70
2022-10-28T13:35:11.386Z,2.83
2022-10-28T13:37:40.302Z,2.92
2022-10-28T13:40:08.359Z,3.00
2022-10-28T13:42:53.753Z,2.80
2022-10-28T13:45:39.711Z,2.70
2022-10-28T13:48:44.608Z,3.07
2022-10-28T13:51:30.334Z,2.90
2022-10-28T13:53:58.269Z,2.90
2022-10-28T13:56:34.255Z,2.60
2022-10-28T13:59:03.026Z,2.95
2022-10-28T14:01:37.617Z,3.40
2022-10-28T14:04:07.055Z,2.80
2022-10-28T14:06:35.997Z,2.85
2022-10-28T14:09:03.792Z,2.80
2022-10-28T14:11:32.500Z,2.78
2022-10-28T14:14:01.326Z,2.97
2022-10-28T14:16:30.650Z,3.53
2022-10-28T14:19:00.267Z,2.72
2022-10-28T14:21:44.607Z,3.00
2022-10-28T14:24:13.486Z,3.08
2022-10-28T14:26:59.360Z,2.97
2022-10-28T14:29:29.551Z,3.20
2022-10-28T14:31:56.940Z,2.80
2022-10-28T14:34:39.245Z,3.17
2022-10-28T14:37:16.689Z,2.60
2022-10-28T14:39:48.972Z,3.33
2022-10-28T14:42:31.601Z,3.03
2022-10-28T14:45:06.374Z,2.75
2022-10-28T14:47:42.469Z,2.83
2022-10-28T14:50:17.413Z,2.78
2022-10-28T14:52:47.542Z,2.80
2022-10-28T14:55:22.328Z,2.92
2022-10-28T14:57:49.686Z,2.90
2022-10-28T15:00:18.411Z,2.80
2022-10-28T15:02:46.608Z,2.92
2022-10-28T15:05:15.993Z,2.53
2022-10-28T15:07:43.506Z,2.78
2022-10-28T15:10:17.106Z,2.97
2022-10-28T15:12:44.721Z,3.00
2022-10-28T15:15:19.498Z,3.72
2022-10-28T15:17:46.881Z,3.20
2022-10-28T15:20:20.369Z,3.30
2022-10-28T15:22:47.771Z,2.78
2022-10-28T15:25:17.414Z,2.80
2022-10-28T15:27:45.518Z,3.10
2022-10-28T15:30:15.615Z,3.30
2022-10-28T15:32:42.976Z,2.85
2022-10-28T15:35:26.673Z,3.22
2022-10-28T15:37:54.674Z,3.00
2022-10-28T15:40:27.951Z,2.60
2022-10-28T15:42:58.948Z,2.60
2022-10-28T15:45:27.794Z,2.70
2022-10-28T15:47:56.230Z,2.88
2022-10-28T15:50:25.920Z,2.60
2022-10-28T15:52:54.221Z,2.67
2022-10-28T15:55:35.808Z,2.53
2022-10-28T15:58:35.518Z,2.85
2022-10-28T16:01:03.373Z,2.13
2022-10-28T16:03:42.711Z,2.20
2022-10-28T16:06:21.031Z,2.00
2022-10-28T16:08:48.857Z,2.37
2022-10-28T16:11:18.711Z,2.40
2022-10-28T16:13:48.120Z,2.33
2022-10-28T16:16:17.207Z,2.95
2022-10-28T16:18:46.137Z,2.53
2022-10-28T16:21:17.725Z,2.27
2022-10-28T16:23:47.750Z,2.10
2022-10-28T16:26:15.173Z,2.15
2022-10-28T16:28:45.318Z,1.90
2022-10-28T16:31:15.185Z,2.38
2022-10-28T16:33:42.972Z,1.90
2022-10-28T16:36:10.703Z,2.25
2022-10-28T16:38:38.442Z,2.10
2022-10-28T16:41:06.881Z,2.00
2022-10-28T16:43:34.280Z,2.40
2022-10-28T16:46:02.995Z,2.13
2022-10-28T16:48:31.221Z,2.13
2022-10-28T16:51:00.372Z,2.28
2022-10-28T16:53:27.864Z,2.22
2022-10-28T16:55:58.808Z,2.05
2022-10-28T16:58:27.030Z,2.27
2022-10-28T17:00:54.894Z,2.05
2022-10-28T17:03:23.599Z,2.35
2022-10-28T17:05:51.005Z,2.13
2022-10-28T17:08:36.132Z,1.75
2022-10-28T17:11:05.968Z,2.20
2022-10-28T17:13:34.622Z,1.95
2022-10-28T17:16:01.953Z,1.98
2022-10-28T17:18:30.639Z,1.50
2022-10-28T17:21:01.731Z,2.03
2022-10-28T17:23:29.313Z,1.73
2022-10-28T17:25:57.052Z,2.10
2022-10-28T17:28:24.441Z,2.10
2022-10-28T17:30:52.035Z,2.08
2022-10-28T17:33:19.402Z,1.70
2022-10-28T17:35:48.091Z,1.90
2022-10-28T17:38:15.503Z,1.40
2022-10-28T17:40:42.847Z,1.90
2022-10-28T17:43:10.196Z,2.00
2022-10-28T17:45:37.530Z,1.48
2022-10-28T17:48:05.069Z,2.10
2022-10-28T17:50:32.393Z,1.65
2022-10-28T17:53:01.081Z,1.65
2022-10-28T17:55:28.527Z,1.80
2022-10-28T17:57:56.315Z,2.20
2022-10-28T18:00:23.963Z,1.50
2022-10-28T18:02:51.430Z,1.58
2022-10-28T18:05:18.839Z,3.25
2022-10-28T18:07:46.191Z,1.73
2022-10-28T18:10:16.623Z,1.80
2022-10-28T18:12:43.971Z,1.30
2022-10-28T18:15:11.642Z,1.73
2022-10-28T18:17:39.055Z,2.10
2022-10-28T18:20:06.978Z,2.10
2022-10-28T18:22:34.303Z,2.42
2022-10-28T18:25:01.648Z,2.13
2022-10-28T18:27:30.919Z,1.35
2022-10-28T18:29:58.289Z,1.30
2022-10-28T18:32:25.634Z,1.98
2022-10-28T18:34:53.029Z,1.67
2022-10-28T18:37:20.454Z,1.60
2022-10-28T18:39:47.798Z,1.92
2022-10-28T18:42:19.256Z,1.65
2022-10-28T18:44:50.506Z,1.70
2022-10-28T18:47:17.856Z,1.90
2022-10-28T18:49:45.671Z,1.70
2022-10-28T18:52:13.172Z,2.10
2022-10-28T18:54:40.515Z,2.08
2022-10-28T18:57:07.854Z,2.03
2022-10-28T18:59:37.237Z,1.83
2022-10-28T19:02:12.502Z,1.90
2022-10-28T19:04:39.929Z,2.15
2022-10-28T19:07:07.281Z,2.25
2022-10-28T19:09:34.687Z,2.00
2022-10-28T19:12:02.051Z,2.00
2022-10-28T19:14:29.448Z,2.20
2022-10-28T19:16:56.810Z,2.10
2022-10-28T19:19:25.553Z,2.78
2022-10-28T19:21:52.907Z,2.47
2022-10-28T19:24:20.234Z,2.00
2022-10-28T19:26:47.581Z,2.67
2022-10-28T19:29:15.050Z,2.17
2022-10-28T19:31:43.385Z,2.40
2022-10-28T19:34:11.072Z,3.15
2022-10-28T19:36:39.766Z,2.22
2022-10-28T19:39:07.384Z,2.10
2022-10-28T19:41:34.741Z,2.35
2022-10-28T19:44:02.799Z,2.10
2022-10-28T19:46:31.098Z,2.25
2022-10-28T19:48:59.161Z,2.50
2022-10-28T19:51:27.611Z,2.27
2022-10-28T19:53:56.975Z,2.65
2022-10-28T19:56:24.787Z,2.10
2022-10-28T19:58:53.291Z,2.50
2022-10-28T20:01:21.200Z,2.80
2022-10-28T20:03:50.307Z,2.80
2022-10-28T20:06:18.361Z,2.88
2022-10-28T20:08:46.511Z,2.85
2022-10-28T20:11:16.193Z,3.35
2022-10-28T20:13:45.652Z,3.42
2022-10-28T20:16:14.200Z,3.33
2022-10-28T20:18:41.683Z,2.90
2022-10-28T20:21:10.791Z,3.05
2022-10-28T20:23:38.533Z,3.20
2022-10-28T20:26:06.893Z,2.70
2022-10-28T20:28:35.876Z,2.63
2022-10-28T20:31:04.707Z,3.38
2022-10-28T20:33:32.339Z,2.95
2022-10-28T20:36:00.116Z,2.58
2022-10-28T20:38:27.607Z,2.85
2022-10-28T20:40:56.037Z,3.60
2022-10-28T20:43:24.100Z,3.60
2022-10-28T20:45:56.713Z,3.35
2022-10-28T20:48:24.068Z,2.95
2022-10-28T20:50:55.230Z,3.45
2022-10-28T20:53:23.395Z,3.47
2022-10-28T20:55:51.787Z,3.22
2022-10-28T20:58:19.550Z,3.15
2022-10-28T21:00:46.927Z,2.85
2022-10-28T21:03:15.741Z,3.05
2022-10-28T21:05:43.449Z,2.80
2022-10-28T21:08:11.459Z,3.05
2022-10-28T21:10:39.220Z,2.55
2022-10-28T21:13:06.886Z,3.83
2022-10-28T21:15:35.262Z,3.35
2022-10-28T21:18:03.079Z,3.00
2022-10-28T21:20:32.041Z,3.30
2022-10-28T21:22:59.871Z,3.35
2022-10-28T21:25:27.378Z,3.17
2022-10-28T21:27:56.576Z,3.00
2022-10-28T21:30:24.283Z,3.00
2022-10-28T21:32:51.745Z,3.70
2022-10-28T21:35:19.206Z,3.80
2022-10-28T21:37:47.919Z,3.05
2022-10-28T21:40:15.297Z,3.22
2022-10-28T21:42:42.717Z,3.60
2022-10-28T21:45:10.345Z,3.00
2022-10-28T21:47:37.718Z,3.05
2022-10-28T21:50:05.382Z,3.63
2022-10-28T21:52:32.798Z,3.90
2022-10-28T21:55:09.686Z,4.10
2022-10-28T21:57:47.586Z,4.70
2022-10-28T22:00:15.161Z,4.63
2022-10-28T22:02:42.638Z,4.88
2022-10-28T22:05:10.085Z,4.25
2022-10-28T22:07:37.504Z,4.50
2022-10-28T22:10:06.810Z,5.50
2022-10-28T22:12:34.202Z,5.18
2022-10-28T22:15:01.590Z,4.88
2022-10-28T22:17:29.272Z,5.63
2022-10-28T22:19:56.711Z,5.13
2022-10-28T22:22:25.791Z,4.70
2022-10-28T22:24:53.287Z,4.65
2022-10-28T22:27:21.991Z,5.15
2022-10-28T22:29:49.357Z,4.70
2022-10-28T22:32:16.806Z,4.40
2022-10-28T22:34:44.160Z,4.00
2022-10-28T22:37:11.611Z,5.10
2022-10-28T22:39:39.032Z,4.38
2022-10-28T22:42:07.445Z,5.00
2022-10-28T22:44:36.250Z,4.63
2022-10-28T22:47:03.734Z,5.47
2022-10-28T22:49:31.076Z,5.93
2022-10-28T22:51:58.451Z,6.15
2022-10-28T22:54:27.653Z,5.55
2022-10-28T22:56:55.025Z,4.57
2022-10-28T22:59:22.389Z,4.88
2022-10-28T23:01:51.987Z,4.95
2022-10-28T23:04:19.389Z,4.90
2022-10-28T23:06:46.770Z,5.80
2022-10-28T23:09:14.133Z,4.60
2022-10-28T23:11:41.482Z,4.53
2022-10-28T23:14:09.008Z,4.75
2022-10-28T23:16:36.352Z,4.47
2022-10-28T23:19:05.041Z,5.28
2022-10-28T23:21:32.370Z,6.30
2022-10-28T23:24:00.735Z,5.68
2022-10-28T23:26:28.933Z,5.38
2022-10-28T23:28:56.986Z,5.00
2022-10-28T23:31:24.761Z,5.30
2022-10-28T23:33:53.386Z,5.37
2022-10-28T23:36:22.202Z,5.18
2022-10-28T23:38:49.541Z,4.60
2022-10-28T23:41:18.771Z,4.97
2022-10-28T23:43:46.839Z,4.43
2022-10-28T23:46:14.199Z,4.47
2022-10-28T23:48:41.913Z,5.38
2022-10-28T23:51:09.262Z,4.38
2022-10-28T23:53:37.957Z,4.05
2022-10-28T23:56:05.581Z,3.80
2022-10-28T23:58:32.925Z,4.27
